createdAt,value
2022-08-22T00:02:27.868Z,3.80
2022-08-22T00:07:47.676Z,4.90
2022-08-22T00:13:03.082Z,5.90
2022-08-22T00:18:16.859Z,6.20
2022-08-22T00:23:29.593Z,5.10
2022-08-22T00:28:41.252Z,5.30
2022-08-22T00:33:53.908Z,6.20
2022-08-22T00:39:13.307Z,6.80
2022-08-22T00:44:58.277Z,6.80
2022-08-22T00:50:34.619Z,6.10
2022-08-22T00:56:04.538Z,4.50
2022-08-22T01:01:15.905Z,3.90
2022-08-22T01:06:30.653Z,7.10
2022-08-22T01:12:12.240Z,6.30
2022-08-22T01:18:06.724Z,5.70
2022-08-22T01:23:47.795Z,7.90
2022-08-22T01:29:44.954Z,6.00
2022-08-22T01:35:10.566Z,7.20
2022-08-22T01:40:57.993Z,7.10
2022-08-22T01:46:24.735Z,7.70
2022-08-22T01:51:42.069Z,9.00
2022-08-22T01:56:50.509Z,9.10
2022-08-22T02:02:02.983Z,7.80
2022-08-22T02:07:19.863Z,8.10
2022-08-22T02:12:36.987Z,8.60
2022-08-22T02:18:02.203Z,7.60
2022-08-22T02:23:19.541Z,6.40
2022-08-22T02:28:56.943Z,8.30
2022-08-22T02:34:18.543Z,7.20
2022-08-22T02:39:35.355Z,8.10
2022-08-22T02:50:01.280Z,8.40
2022-08-22T02:55:14.620Z,8.80
2022-08-22T03:00:32.359Z,8.00
2022-08-22T03:06:01.594Z,8.70
2022-08-22T03:11:17.637Z,8.10
2022-08-22T03:16:35.334Z,9.10
2022-08-22T03:21:48.991Z,9.60
2022-08-22T03:27:07.552Z,6.90
2022-08-22T03:32:19.367Z,7.60
2022-08-22T03:37:37.929Z,9.50
2022-08-22T03:43:06.921Z,8.20
2022-08-22T03:48:48.416Z,8.20
2022-08-22T03:54:20.889Z,8.50
2022-08-22T04:00:00.426Z,8.20
2022-08-22T04:05:34.324Z,8.20
2022-08-22T04:11:12.668Z,7.50
2022-08-22T04:17:10.316Z,8.70
2022-08-22T04:27:51.020Z,6.80
2022-08-22T04:38:11.674Z,6.40
2022-08-22T04:43:25.429Z,7.10
2022-08-22T04:48:37.856Z,8.20
2022-08-22T04:54:03.584Z,6.50
2022-08-22T04:59:17.644Z,7.80
2022-08-22T05:04:29.287Z,7.60
2022-08-22T05:09:40.237Z,8.00
2022-08-22T05:14:54.390Z,7.70
2022-08-22T05:20:05.273Z,6.70
2022-08-22T05:25:16.747Z,7.20
2022-08-22T05:30:26.599Z,8.20
2022-08-22T05:35:39.114Z,8.60
2022-08-22T05:40:52.431Z,8.40
2022-08-22T05:46:01.161Z,9.10
2022-08-22T05:51:19.067Z,9.10
2022-08-22T05:56:35.990Z,7.30
2022-08-22T06:01:53.407Z,10.90
2022-08-22T06:07:06.623Z,9.70
2022-08-22T06:12:22.148Z,8.70
2022-08-22T06:17:34.963Z,9.60
2022-08-22T06:22:51.401Z,9.10
2022-08-22T06:28:00.119Z,11.50
2022-08-22T06:33:12.541Z,12.10
2022-08-22T06:38:21.983Z,11.30
2022-08-22T06:43:32.408Z,10.10
2022-08-22T06:48:39.866Z,13.00
2022-08-22T06:53:49.079Z,13.50
2022-08-22T06:58:58.888Z,12.80
2022-08-22T07:04:10.503Z,11.30
2022-08-22T07:09:31.017Z,14.60
2022-08-22T07:14:44.153Z,13.00
2022-08-22T07:20:00.212Z,14.10
2022-08-22T07:25:14.108Z,16.50
2022-08-22T07:30:27.820Z,13.70
2022-08-22T07:35:42.942Z,16.50
2022-08-22T07:41:08.777Z,18.00
2022-08-22T07:46:28.991Z,16.30
2022-08-22T07:51:46.518Z,14.90
2022-08-22T07:57:00.792Z,16.20
2022-08-22T08:02:13.571Z,15.40
2022-08-22T08:07:25.129Z,15.80
2022-08-22T08:12:35.611Z,16.50
2022-08-22T08:17:44.407Z,16.50
2022-08-22T08:22:54.284Z,16.40
2022-08-22T08:28:20.351Z,15.90
2022-08-22T08:33:33.247Z,18.60
2022-08-22T08:38:47.009Z,17.20
2022-08-22T08:44:02.773Z,16.00
2022-08-22T09:00:15.016Z,18.30
2022-08-22T09:06:09.278Z,18.10
2022-08-22T09:11:47.010Z,19.10
2022-08-22T09:17:16.545Z,21.70
2022-08-22T09:22:58.843Z,23.20
2022-08-22T09:28:17.878Z,20.10
2022-08-22T09:33:32.037Z,19.20
2022-08-22T09:38:51.258Z,20.90
2022-08-22T09:40:16.304Z,16.60
2022-08-22T09:44:13.464Z,22.10
2022-08-22T09:49:29.523Z,18.30
2022-08-22T09:54:44.904Z,20.80
2022-08-22T10:00:22.052Z,21.00
2022-08-22T10:05:44.415Z,21.00
2022-08-22T10:11:17.643Z,18.80
2022-08-22T10:16:35.073Z,18.40
2022-08-22T10:22:08.875Z,15.50
2022-08-22T10:27:19.776Z,15.30
2022-08-22T10:32:40.048Z,18.60
2022-08-22T10:37:59.207Z,18.80
2022-08-22T10:43:13.281Z,17.50
2022-08-22T10:48:41.261Z,17.80
2022-08-22T10:54:19.828Z,20.10
2022-08-22T10:59:39.388Z,16.70
2022-08-22T11:05:08.584Z,16.10
2022-08-22T11:10:25.922Z,17.90
2022-08-22T11:15:57.405Z,17.30
2022-08-22T11:21:09.786Z,21.50
2022-08-22T11:26:46.672Z,19.30
2022-08-22T11:32:06.697Z,21.40
2022-08-22T11:37:42.682Z,24.90
2022-08-22T11:42:59.082Z,24.50
2022-08-22T11:48:18.080Z,25.20
2022-08-22T11:53:35.261Z,29.10
2022-08-22T11:59:02.452Z,30.70
2022-08-22T12:04:18.661Z,23.60
2022-08-22T12:09:50.747Z,23.10
2022-08-22T12:15:08.877Z,25.60
2022-08-22T12:20:33.247Z,22.70
2022-08-22T12:25:58.584Z,21.60
2022-08-22T12:31:16.249Z,23.80
2022-08-22T12:36:41.523Z,20.90
2022-08-22T12:42:18.046Z,20.20
2022-08-22T12:47:45.363Z,24.30
2022-08-22T12:53:10.886Z,27.00
2022-08-22T12:58:34.103Z,26.60
2022-08-22T13:03:48.665Z,21.30
2022-08-22T13:08:56.139Z,25.00
2022-08-22T13:14:04.473Z,25.20
2022-08-22T13:19:18.740Z,23.60
2022-08-22T13:24:38.894Z,24.50
2022-08-22T13:29:53.317Z,24.70
2022-08-22T13:35:01.331Z,23.20
2022-08-22T13:40:14.252Z,21.20
2022-08-22T13:45:28.936Z,21.90
2022-08-22T13:50:53.656Z,22.10
2022-08-22T13:56:15.876Z,23.50
2022-08-22T14:01:35.898Z,21.60
2022-08-22T14:06:52.994Z,22.60
2022-08-22T14:12:12.210Z,22.80
2022-08-22T14:17:24.415Z,23.10
2022-08-22T14:22:35.032Z,21.20
2022-08-22T14:28:01.054Z,18.60
2022-08-22T14:33:21.353Z,22.60
2022-08-22T14:38:38.375Z,22.90
2022-08-22T14:43:57.100Z,22.20
2022-08-22T14:49:28.756Z,20.30
2022-08-22T14:54:37.472Z,18.60
2022-08-22T14:59:50.587Z,22.10
2022-08-22T15:05:01.927Z,21.50
2022-08-22T15:10:22.707Z,22.90
2022-08-22T15:15:41.285Z,22.20
2022-08-22T15:21:08.909Z,20.20
2022-08-22T15:26:28.506Z,17.60
2022-08-22T15:31:39.638Z,20.80
2022-08-22T15:37:28.634Z,21.30
2022-08-22T15:42:38.570Z,19.40
2022-08-22T15:47:52.585Z,15.50
2022-08-22T15:53:15.996Z,19.50
2022-08-22T15:58:25.939Z,18.80
2022-08-22T16:03:35.408Z,18.90
2022-08-22T16:08:52.311Z,18.60
2022-08-22T16:14:21.754Z,18.20
2022-08-22T16:19:30.261Z,19.40
2022-08-22T16:24:59.583Z,20.50
2022-08-22T16:30:17.686Z,18.80
2022-08-22T16:35:58.867Z,19.20
2022-08-22T16:41:06.496Z,17.80
2022-08-22T16:52:18.334Z,17.70
2022-08-22T16:57:31.423Z,19.70
2022-08-22T17:02:59.160Z,22.10
2022-08-22T17:08:21.261Z,18.20
2022-08-22T17:13:48.564Z,20.40
2022-08-22T17:24:31.946Z,21.40
2022-08-22T17:30:00.570Z,19.40
2022-08-22T17:35:19.415Z,21.50
2022-08-22T17:40:35.477Z,24.40
2022-08-22T17:46:01.571Z,22.60
2022-08-22T17:51:28.271Z,22.70
2022-08-22T17:56:45.515Z,25.70
2022-08-22T18:02:00.285Z,27.60
2022-08-22T18:07:41.401Z,26.00
2022-08-22T18:12:55.899Z,23.80
2022-08-22T18:18:07.778Z,24.00
2022-08-22T18:23:38.981Z,28.70
2022-08-22T18:28:55.616Z,25.60
2022-08-22T18:34:09.454Z,27.80
2022-08-22T18:39:23.242Z,25.60
2022-08-22T18:44:33.257Z,27.40
2022-08-22T18:49:44.290Z,29.00
2022-08-22T18:55:08.611Z,26.00
2022-08-22T19:00:19.011Z,24.70
2022-08-22T19:05:57.105Z,19.90
2022-08-22T19:11:24.530Z,22.30
2022-08-22T19:16:52.235Z,23.90
2022-08-22T19:22:27.000Z,23.50
2022-08-22T19:27:36.144Z,20.80
2022-08-22T19:33:07.740Z,19.70
2022-08-22T19:38:35.286Z,18.40
2022-08-22T19:43:44.695Z,17.00
2022-08-22T19:48:53.271Z,13.20
2022-08-22T19:54:23.001Z,15.90
2022-08-22T19:59:50.528Z,13.30
2022-08-22T20:05:28.649Z,14.00
2022-08-22T20:10:49.754Z,13.70
2022-08-22T20:16:23.758Z,11.50
2022-08-22T20:21:51.231Z,9.80
2022-08-22T20:27:13.792Z,10.80
2022-08-22T20:32:26.270Z,9.00
2022-08-22T20:38:05.218Z,7.40
2022-08-22T20:43:10.960Z,7.00
2022-08-22T20:48:18.067Z,8.20
2022-08-22T20:53:25.410Z,6.60
2022-08-22T20:58:48.606Z,4.90
2022-08-22T21:03:57.852Z,6.10
2022-08-22T21:09:35.238Z,4.80
2022-08-22T21:14:46.351Z,4.80
2022-08-22T21:19:53.809Z,5.40
2022-08-22T21:25:05.320Z,5.50
2022-08-22T21:30:22.902Z,5.60
2022-08-22T21:35:33.140Z,5.90
2022-08-22T21:40:40.838Z,5.30
2022-08-22T21:45:48.187Z,6.80
2022-08-22T21:50:55.126Z,4.70
2022-08-22T21:56:16.386Z,5.40
2022-08-22T22:01:31.766Z,4.70
2022-08-22T22:06:39.372Z,7.50
2022-08-22T22:11:46.619Z,6.00
2022-08-22T22:16:53.781Z,6.10
2022-08-22T22:22:00.768Z,5.70
2022-08-22T22:27:09.615Z,4.90
2022-08-22T22:32:18.749Z,4.90
2022-08-22T22:37:26.479Z,5.40
2022-08-22T22:42:33.652Z,5.60
2022-08-22T22:47:40.801Z,5.20
2022-08-22T22:52:47.918Z,6.10
2022-08-22T22:57:59.088Z,6.90
2022-08-22T23:03:08.448Z,6.40
2022-08-22T23:08:15.767Z,5.80
2022-08-22T23:13:23.559Z,5.60
2022-08-22T23:18:32.576Z,5.50
2022-08-22T23:23:41.043Z,6.90
2022-08-22T23:28:48.171Z,7.20
2022-08-22T23:33:55.754Z,5.80
2022-08-22T23:39:02.863Z,7.40
2022-08-22T23:44:13.650Z,6.90
2022-08-22T23:49:21.468Z,7.10
2022-08-22T23:54:29.669Z,7.00
2022-08-22T23:59:38.548Z,6.90
